Aurora, WV (26705)

1:01 PM EDT on July 30, 2016 (GMT -0400)
1 1/2 Mi. South of Terra Alta, Snowy Creek WV | | Change Station

Elev 2842 ft 39.40 °N, 79.58 °W | Updated 2 minutes ago

Overcast
Overcast
79.7 °F
Feels Like 82 °F
N
6.8
Wind Variable Wind from ESE

Today
High -- | Low -- °F
--% Chance of Precip.
Yesterday
High -- | Low -- °F
Precip. -- in
Pressure 30.08 in
Visibility 1.5 miles
Clouds Scattered Clouds 1000 ft
Mostly Cloudy 2100 ft
Overcast 3900 ft
Heat Index 82 °F
Dew Point 65 °F
Humidity 61%
Rainfall 0.00 in
Snow Depth Not available.
6:17 AM 8:31 PM
Waning Crescent, 12% visible
METAR K2G4 301650Z AUTO 22006KT 1 1/2SM BR SCT010 BKN021 OVC039 19/18 A3008 RMK AO1 VIS 1/2V5
Pressure 30.08 in
Visibility 1.5 miles
Clouds Scattered Clouds 1000 ft
Mostly Cloudy 2100 ft
Overcast 3900 ft
Heat Index 82 °F
Dew Point 65 °F
Humidity 61%
Rainfall 0.00 in
Snow Depth Not available.
6:17 AM 8:31 PM
Waning Crescent, 12% visible
METAR K2G4 301650Z AUTO 22006KT 1 1/2SM BR SCT010 BKN021 OVC039 19/18 A3008 RMK AO1 VIS 1/2V5

10-Day Weather Forecast

Almanac

Astronomy

Jul. 30, 2016 Rise Set
Actual Time
Civil Twilight
Nautical Twilight
Astronomical Twilight
Moon
Length of Visible Light
Length of Day
Tomorrow will be .
, % of the Moon is Illuminated

Today's Extremes

State Highs State Lows

Community

WunderPhotos

Upload Photos

1,928,598 photos uploaded!

WunderBlog® & News

Nearby

Air Quality

  Air Quality AQ Index Pollutant
Not available.

Snow Depth

Station Depth Elevation

Earthquake Activity

City Distance Mag. Time & Date
Minimum magnitude displayed is 2.5.

Coastal Water Temperatures

Place Temperature

Stations

Nearby Weather Stations

Station Location Temp. Windchill Dew Point Humidity Wind Precip. Elev Updated Type
                   

Watches & Warnings

There are currently no watches in effect.